createdAt,value
2022-08-29T00:04:48.041Z,97134.25
2022-08-29T00:09:41.397Z,97134.72
2022-08-29T00:14:36.565Z,97129.75
2022-08-29T00:19:29.901Z,97134.25
2022-08-29T00:24:26.096Z,97120.25
2022-08-29T00:29:19.425Z,97123.00
2022-08-29T00:34:14.148Z,97129.34
2022-08-29T00:39:09.203Z,97124.47
2022-08-29T00:44:03.510Z,97120.81
2022-08-29T00:49:04.099Z,97122.19
2022-08-29T00:54:04.437Z,97116.66
2022-08-29T00:59:05.036Z,97123.25
2022-08-29T01:03:58.667Z,97122.78
2022-08-29T01:08:57.360Z,97119.56
2022-08-29T01:13:56.023Z,97125.25
2022-08-29T01:18:54.335Z,97133.00
2022-08-29T01:24:00.437Z,97130.00
2022-08-29T01:28:56.754Z,97132.13
2022-08-29T01:33:53.272Z,97130.28
2022-08-29T01:38:46.591Z,97129.91
2022-08-29T01:43:49.791Z,97132.22
2022-08-29T01:48:46.824Z,97134.16
2022-08-29T01:53:40.761Z,97128.53
2022-08-29T01:58:34.075Z,97132.13
2022-08-29T02:03:27.469Z,97133.41
2022-08-29T02:08:22.147Z,97142.84
2022-08-29T02:13:15.467Z,97133.47
2022-08-29T02:18:08.795Z,97135.34
2022-08-29T02:23:02.079Z,97135.19
2022-08-29T02:27:58.198Z,97143.09
2022-08-29T02:32:51.527Z,97148.69
2022-08-29T02:37:44.942Z,97142.94
2022-08-29T02:42:38.318Z,97133.63
2022-08-29T02:47:36.574Z,97138.25
2022-08-29T02:52:30.724Z,97146.06
2022-08-29T02:57:26.415Z,97139.66
2022-08-29T03:02:20.067Z,97141.69
2022-08-29T03:07:14.828Z,97138.34
2022-08-29T03:12:08.729Z,97128.44
2022-08-29T03:17:02.132Z,97133.91
2022-08-29T03:21:55.480Z,97138.28
2022-08-29T03:26:54.532Z,97134.34
2022-08-29T03:31:50.502Z,97129.94
2022-08-29T03:36:43.848Z,97127.47
2022-08-29T03:41:37.142Z,97120.34
2022-08-29T03:46:31.871Z,97122.53
2022-08-29T03:51:29.572Z,97123.16
2022-08-29T03:56:23.094Z,97127.78
2022-08-29T04:01:17.684Z,97140.50
2022-08-29T04:06:13.039Z,97139.66
2022-08-29T04:11:11.212Z,97143.53
2022-08-29T04:16:11.292Z,97144.78
2022-08-29T04:21:06.965Z,97144.56
2022-08-29T04:26:19.130Z,97149.16
2022-08-29T04:31:20.169Z,97158.41
2022-08-29T04:36:15.129Z,97157.97
2022-08-29T04:41:14.842Z,97152.34
2022-08-29T04:46:08.366Z,97169.41
2022-08-29T04:51:10.819Z,97166.47
2022-08-29T04:56:10.163Z,97177.59
2022-08-29T05:01:03.859Z,97178.13
2022-08-29T05:05:57.930Z,97185.25
2022-08-29T05:10:51.481Z,97184.50
2022-08-29T05:15:46.407Z,97192.16
2022-08-29T05:20:42.086Z,97200.06
2022-08-29T05:25:35.569Z,97193.44
2022-08-29T05:30:34.611Z,97192.91
2022-08-29T05:35:30.180Z,97205.50
2022-08-29T05:40:23.588Z,97201.41
2022-08-29T05:45:17.094Z,97213.06
2022-08-29T05:50:11.835Z,97214.84
2022-08-29T05:55:07.332Z,97213.50
2022-08-29T06:00:01.263Z,97215.09
2022-08-29T06:04:54.680Z,97219.31
2022-08-29T06:09:52.957Z,97211.75
2022-08-29T06:14:50.145Z,97211.53
2022-08-29T06:19:44.156Z,97218.41
2022-08-29T06:24:39.127Z,97229.16
2022-08-29T06:29:32.715Z,97235.78
2022-08-29T06:34:38.061Z,97242.66
2022-08-29T06:39:31.824Z,97230.13
2022-08-29T06:44:26.585Z,97242.31
2022-08-29T06:49:24.643Z,97243.66
2022-08-29T06:54:21.966Z,97237.78
2022-08-29T06:59:16.267Z,97244.22
2022-08-29T07:04:14.409Z,97234.31
2022-08-29T07:09:10.470Z,97239.63
2022-08-29T07:14:05.837Z,97249.34
2022-08-29T07:18:59.729Z,97236.47
2022-08-29T07:23:55.267Z,97243.81
2022-08-29T07:28:49.803Z,97255.22
2022-08-29T07:33:44.920Z,97245.28
2022-08-29T07:38:39.453Z,97254.66
2022-08-29T07:43:36.299Z,97255.00
2022-08-29T07:48:30.178Z,97258.31
2022-08-29T07:53:28.500Z,97250.47
2022-08-29T07:58:21.855Z,97246.28
2022-08-29T08:03:16.204Z,97243.41
2022-08-29T08:08:14.825Z,97241.44
2022-08-29T08:13:11.049Z,97248.22
2022-08-29T08:18:04.807Z,97249.50
2022-08-29T08:22:58.648Z,97251.53
2022-08-29T08:27:52.118Z,97244.53
2022-08-29T08:32:49.562Z,97246.81
2022-08-29T08:37:46.237Z,97250.84
2022-08-29T08:42:43.969Z,97256.66
2022-08-29T08:47:44.525Z,97256.63
2022-08-29T09:29:34.591Z,97264.84
2022-08-29T09:34:57.416Z,97257.41
2022-08-29T09:40:01.517Z,97259.22
2022-08-29T09:50:13.751Z,97257.69
2022-08-29T10:16:00.001Z,97249.00
2022-08-29T10:41:55.237Z,97234.59
2022-08-29T11:02:32.670Z,97230.75
2022-08-29T11:07:41.105Z,97231.56
2022-08-29T11:12:45.376Z,97222.72
2022-08-29T11:48:52.855Z,97208.16
2022-08-29T11:58:52.631Z,97199.31
2022-08-29T12:03:47.496Z,97186.72
2022-08-29T12:19:06.128Z,97173.34
2022-08-29T12:29:22.038Z,97160.94
2022-08-29T12:34:35.470Z,97153.72
2022-08-29T12:55:05.869Z,97141.50
2022-08-29T13:54:37.116Z,97122.28
2022-08-29T13:59:36.194Z,97116.53
2022-08-29T14:14:55.039Z,97115.50
2022-08-29T14:19:48.915Z,97114.47
2022-08-29T15:21:38.642Z,97080.78
2022-08-29T15:26:32.554Z,97070.06
2022-08-29T15:31:26.016Z,97079.97
2022-08-29T15:36:19.375Z,97065.91
2022-08-29T15:41:14.107Z,97062.63
2022-08-29T15:46:07.866Z,97054.34
2022-08-29T15:51:01.502Z,97057.25
2022-08-29T15:55:54.967Z,97055.38
2022-08-29T16:00:49.771Z,97036.22
2022-08-29T16:05:43.786Z,97051.88
2022-08-29T16:10:37.230Z,97045.09
2022-08-29T16:15:31.571Z,97047.34
2022-08-29T16:20:26.852Z,97031.63
2022-08-29T16:25:24.838Z,97034.13
2022-08-29T16:30:20.118Z,97025.66
2022-08-29T16:35:16.773Z,97028.53
2022-08-29T16:40:16.124Z,97026.22
2022-08-29T16:45:11.947Z,97023.31
2022-08-29T16:50:08.875Z,97031.97
2022-08-29T16:55:02.272Z,97023.91
2022-08-29T16:59:57.131Z,97033.81
2022-08-29T17:04:50.524Z,97028.03
2022-08-29T17:09:42.809Z,97030.25
2022-08-29T17:14:35.052Z,97030.47
2022-08-29T17:19:33.459Z,97033.56
2022-08-29T17:24:27.188Z,97035.13
2022-08-29T17:29:20.690Z,97037.91
2022-08-29T17:34:16.188Z,97056.16
2022-08-29T17:39:11.454Z,97047.81
2022-08-29T17:44:07.004Z,97054.78
2022-08-29T17:49:04.232Z,97056.31
2022-08-29T17:54:00.472Z,97057.50
2022-08-29T17:58:55.289Z,97056.78
2022-08-29T18:03:48.712Z,97057.66
2022-08-29T18:08:42.353Z,97062.13
2022-08-29T18:13:41.822Z,97074.31
2022-08-29T18:18:36.662Z,97080.91
2022-08-29T18:23:30.120Z,97079.28
2022-08-29T18:28:23.511Z,97087.94
2022-08-29T18:33:17.042Z,97098.38
2022-08-29T18:38:11.920Z,97095.25
2022-08-29T18:43:05.569Z,97098.09
2022-08-29T18:47:58.942Z,97100.06
2022-08-29T18:53:05.475Z,97113.91
2022-08-29T18:58:01.240Z,97113.91
2022-08-29T19:02:56.380Z,97116.13
2022-08-29T19:07:49.799Z,97120.72
2022-08-29T19:12:44.168Z,97118.78
2022-08-29T19:17:42.896Z,97120.81
2022-08-29T19:22:38.283Z,97126.78
2022-08-29T19:27:42.873Z,97130.47
2022-08-29T19:32:37.039Z,97128.94
2022-08-29T19:37:31.997Z,97120.63
2022-08-29T19:42:25.436Z,97141.34
2022-08-29T19:47:18.947Z,97147.88
2022-08-29T19:52:13.317Z,97152.09
2022-08-29T19:57:08.274Z,97160.53
2022-08-29T20:02:01.766Z,97158.81
2022-08-29T20:07:00.095Z,97156.31
2022-08-29T20:11:53.777Z,97149.44
2022-08-29T20:17:07.914Z,97156.81
2022-08-29T20:22:03.374Z,97150.59
2022-08-29T20:26:57.729Z,97163.28
2022-08-29T20:31:55.339Z,97164.94
2022-08-29T20:37:06.025Z,97162.84
2022-08-29T20:42:02.170Z,97163.19
2022-08-29T20:46:57.093Z,97169.34
2022-08-29T20:51:54.273Z,97174.25
2022-08-29T20:56:51.722Z,97178.47
2022-08-29T21:01:48.080Z,97173.94
2022-08-29T21:06:47.490Z,97168.69
2022-08-29T21:11:40.794Z,97169.63
2022-08-29T21:16:36.249Z,97175.41
2022-08-29T21:21:29.684Z,97168.72
2022-08-29T21:26:24.614Z,97175.56
2022-08-29T21:31:18.477Z,97187.03
2022-08-29T21:36:13.026Z,97186.41
2022-08-29T21:41:10.435Z,97181.94
2022-08-29T21:46:13.819Z,97182.75
2022-08-29T21:51:07.204Z,97188.75
2022-08-29T21:56:00.548Z,97183.78
2022-08-29T22:00:53.890Z,97189.94
2022-08-29T22:05:49.072Z,97185.91
2022-08-29T22:10:43.916Z,97183.75
2022-08-29T22:15:54.494Z,97179.09
2022-08-29T22:20:52.924Z,97176.75
2022-08-29T22:25:49.192Z,97171.00
2022-08-29T22:30:42.604Z,97171.47
2022-08-29T22:35:37.001Z,97170.66
2022-08-29T22:40:32.272Z,97175.16
2022-08-29T22:45:25.841Z,97173.84
2022-08-29T22:50:22.288Z,97171.19
2022-08-29T23:00:20.306Z,97171.53
2022-08-29T23:05:14.130Z,97172.19
2022-08-29T23:10:10.274Z,97167.84
2022-08-29T23:15:05.398Z,97170.69
2022-08-29T23:20:00.128Z,97160.25
2022-08-29T23:24:58.713Z,97168.84
2022-08-29T23:29:53.153Z,97168.84
2022-08-29T23:34:46.531Z,97174.13
2022-08-29T23:39:41.345Z,97172.97
2022-08-29T23:44:35.773Z,97182.09
2022-08-29T23:49:29.748Z,97190.41
2022-08-29T23:54:23.141Z,97193.06
2022-08-29T23:59:31.714Z,97189.44
